Time;durP1;ratioP1;P1;durP2;ratioP2;P2;SDS_P1;SDS_P2;PMS_P1;PMS_P2;Temp;Humidity;BMP_temperature;BMP_pressure;BME280_temperature;BME280_humidity;BME280_pressure;Samples;Min_cycle;Max_cycle;Signal;HPM_P1;HPM_P2
2021/06/27 00:00:29;;;;;;;10.17;9.20;;;16.40;99.90;;;;;;5074540;28;20427;-80
2021/06/27 00:02:55;;;;;;;9.13;8.43;;;16.40;99.90;;;;;;5075306;28;20176;-80
2021/06/27 00:05:23;;;;;;;9.50;8.70;;;16.40;99.90;;;;;;5074849;28;20557;-80
2021/06/27 00:07:51;;;;;;;10.83;9.83;;;16.30;99.90;;;;;;5074957;28;20476;-80
2021/06/27 00:10:26;;;;;;;9.63;8.73;;;16.30;99.90;;;;;;5074897;28;20409;-80
2021/06/27 00:12:52;;;;;;;11.00;8.87;;;16.20;99.90;;;;;;5075663;28;20452;-80
2021/06/27 00:15:28;;;;;;;9.83;8.90;;;16.30;99.90;;;;;;5075466;28;20492;-80
2021/06/27 00:17:55;;;;;;;10.20;9.30;;;16.20;99.90;;;;;;5075357;28;20406;-80
2021/06/27 00:20:24;;;;;;;11.23;10.13;;;16.20;99.90;;;;;;5075209;28;20415;-80
2021/06/27 00:22:50;;;;;;;10.40;9.00;;;16.10;99.90;;;;;;5090986;28;20784;-80
2021/06/27 00:25:19;;;;;;;9.60;8.70;;;16.10;99.90;;;;;;5074133;28;20832;-80
2021/06/27 00:27:48;;;;;;;10.27;8.70;;;16.00;99.90;;;;;;5074980;28;20746;-80
2021/06/27 00:30:16;;;;;;;10.00;9.00;;;15.90;99.90;;;;;;5074856;28;20403;-80
2021/06/27 00:32:42;;;;;;;9.40;8.40;;;15.90;99.90;;;;;;5074774;28;20792;-80
2021/06/27 00:35:11;;;;;;;9.70;8.83;;;15.80;99.90;;;;;;5074965;28;20462;-80
2021/06/27 00:37:37;;;;;;;10.40;9.50;;;15.80;99.90;;;;;;5074767;28;20191;-80
2021/06/27 00:40:11;;;;;;;10.43;9.33;;;15.80;99.90;;;;;;5073844;28;20403;-80
2021/06/27 00:42:37;;;;;;;9.70;8.70;;;15.70;99.90;;;;;;5074428;28;20414;-80
2021/06/27 00:45:05;;;;;;;11.33;10.17;;;15.70;99.90;;;;;;5073522;28;20516;-80
2021/06/27 00:47:34;;;;;;;10.30;9.20;;;15.70;99.90;;;;;;5074199;28;20434;-80
2021/06/27 00:50:00;;;;;;;8.37;7.67;;;15.70;99.90;;;;;;5074745;28;20544;-80
2021/06/27 00:52:26;;;;;;;10.20;9.20;;;15.70;99.90;;;;;;5074602;28;20410;-80
2021/06/27 00:54:52;;;;;;;12.47;9.10;;;15.70;99.90;;;;;;5073466;28;20505;-80
2021/06/27 00:57:19;;;;;;;9.03;8.13;;;15.70;99.90;;;;;;5090423;28;20423;-80
2021/06/27 00:59:45;;;;;;;10.57;9.50;;;15.60;99.90;;;;;;5074481;28;20415;-80
2021/06/27 01:02:11;;;;;;;11.00;9.37;;;15.70;99.90;;;;;;5073665;28;20437;-80
2021/06/27 01:04:38;;;;;;;9.80;8.90;;;15.60;99.90;;;;;;5074486;28;20660;-80
2021/06/27 01:07:05;;;;;;;10.70;9.60;;;15.50;99.90;;;;;;5090262;28;20449;-80
2021/06/27 01:09:31;;;;;;;9.77;8.77;;;15.50;99.90;;;;;;5090344;28;20526;-80
2021/06/27 01:11:58;;;;;;;9.70;8.80;;;15.40;99.90;;;;;;5074441;28;20438;-80
2021/06/27 01:14:25;;;;;;;9.70;8.70;;;15.40;99.90;;;;;;5073955;28;20415;-80
2021/06/27 01:16:51;;;;;;;10.00;9.00;;;15.40;99.90;;;;;;5074186;28;20487;-80
2021/06/27 01:19:17;;;;;;;10.23;9.33;;;15.30;99.90;;;;;;5073867;28;20422;-80
2021/06/27 01:21:43;;;;;;;10.57;9.47;;;15.20;99.90;;;;;;5074148;28;20403;-80
2021/06/27 01:24:09;;;;;;;9.13;8.33;;;15.20;99.90;;;;;;5073878;28;20410;-80
2021/06/27 01:26:35;;;;;;;8.83;8.00;;;15.10;99.90;;;;;;5089644;28;20459;-80
2021/06/27 01:29:01;;;;;;;11.07;8.83;;;15.20;99.90;;;;;;5074158;28;20617;-80
2021/06/27 01:31:27;;;;;;;9.30;8.40;;;15.20;99.90;;;;;;5073871;28;20448;-80
2021/06/27 01:33:54;;;;;;;9.60;8.80;;;15.20;99.90;;;;;;5073821;28;20419;-80
2021/06/27 01:36:24;;;;;;;9.70;8.50;;;15.20;99.90;;;;;;5073888;28;20415;-80
2021/06/27 01:38:50;;;;;;;8.80;8.00;;;15.20;99.90;;;;;;5073616;28;20406;-80
2021/06/27 01:41:17;;;;;;;9.67;8.80;;;15.20;99.90;;;;;;5073685;28;20414;-80
2021/06/27 01:43:43;;;;;;;9.77;8.77;;;15.10;99.90;;;;;;5073378;28;20998;-80
2021/06/27 01:46:09;;;;;;;10.03;9.03;;;15.10;99.90;;;;;;5073357;28;20454;-80
2021/06/27 01:48:36;;;;;;;9.13;8.27;;;15.00;99.90;;;;;;5073547;28;20287;-80
2021/06/27 01:51:06;;;;;;;9.90;9.00;;;15.00;99.90;;;;;;5072902;28;20173;-80
2021/06/27 01:53:34;;;;;;;9.50;8.50;;;15.00;99.90;;;;;;5073636;28;20395;-80
2021/06/27 01:56:07;;;;;;;9.07;8.17;;;15.00;99.90;;;;;;5073427;28;20505;-80
2021/06/27 01:58:43;;;;;;;9.70;8.80;;;15.00;99.90;;;;;;5073323;28;20407;-80
2021/06/27 02:01:22;;;;;;;9.57;8.57;;;14.90;99.90;;;;;;5071872;28;20433;-80
2021/06/27 02:03:49;;;;;;;8.20;7.40;;;14.90;99.90;;;;;;5073095;28;20421;-80
2021/06/27 02:06:17;;;;;;;8.70;7.90;;;14.80;99.90;;;;;;5073026;28;20879;-80
2021/06/27 02:08:43;;;;;;;9.70;8.60;;;14.80;99.90;;;;;;5072868;28;20418;-80
2021/06/27 02:11:11;;;;;;;10.13;9.00;;;14.80;99.90;;;;;;5072939;28;20422;-80
2021/06/27 02:13:37;;;;;;;9.90;8.87;;;14.80;99.90;;;;;;5072848;28;20411;-80
2021/06/27 02:16:05;;;;;;;9.27;8.17;;;14.80;99.90;;;;;;5073147;28;20927;-80
2021/06/27 02:18:32;;;;;;;9.57;8.50;;;14.80;99.90;;;;;;5072792;28;20415;-80
2021/06/27 02:21:02;;;;;;;9.80;8.90;;;14.80;99.90;;;;;;5072474;28;20431;-80
2021/06/27 02:23:28;;;;;;;8.20;7.40;;;14.80;99.90;;;;;;5088516;28;20484;-80
2021/06/27 02:25:54;;;;;;;8.90;8.07;;;14.80;99.90;;;;;;5072523;28;20486;-80
2021/06/27 02:28:20;;;;;;;8.57;7.80;;;14.80;99.90;;;;;;5072948;28;20429;-80
2021/06/27 02:30:46;;;;;;;9.63;8.67;;;14.80;99.90;;;;;;5072764;28;20413;-80
2021/06/27 02:33:12;;;;;;;10.27;9.17;;;14.70;99.90;;;;;;5072697;28;20743;-80
2021/06/27 02:35:38;;;;;;;8.97;8.17;;;14.70;99.90;;;;;;5072966;28;20920;-80
2021/06/27 02:38:05;;;;;;;8.33;7.57;;;14.70;99.90;;;;;;5088533;28;20510;-80
2021/06/27 02:40:31;;;;;;;8.93;8.03;;;14.70;99.90;;;;;;5072700;28;20414;-80
2021/06/27 02:42:57;;;;;;;8.30;7.53;;;14.70;99.90;;;;;;5072886;28;20484;-80
2021/06/27 02:45:23;;;;;;;8.83;8.03;;;14.70;99.90;;;;;;5072108;28;20206;-80
2021/06/27 02:47:48;;;;;;;8.77;7.93;;;14.60;99.90;;;;;;5071704;28;20181;-80
2021/06/27 02:50:16;;;;;;;9.27;8.37;;;14.60;99.90;;;;;;5072057;28;21121;-80
2021/06/27 02:52:42;;;;;;;9.27;8.37;;;14.70;99.90;;;;;;5072337;28;20191;-80
2021/06/27 02:55:10;;;;;;;9.10;8.20;;;14.70;99.90;;;;;;5072209;28;20767;-80
2021/06/27 02:57:38;;;;;;;9.00;7.97;;;14.70;99.90;;;;;;5072453;28;20952;-80
2021/06/27 03:00:07;;;;;;;8.50;7.70;;;14.80;99.90;;;;;;5072190;28;20513;-80
2021/06/27 03:02:33;;;;;;;10.43;7.97;;;14.90;99.90;;;;;;5072122;28;20415;-80
2021/06/27 03:04:58;;;;;;;9.53;8.57;;;14.90;99.90;;;;;;5071589;28;20892;-80
2021/06/27 03:07:24;;;;;;;8.87;7.97;;;14.90;99.90;;;;;;5071888;28;20442;-80
2021/06/27 03:09:50;;;;;;;9.57;7.80;;;14.90;99.90;;;;;;5074336;28;20207;-80
2021/06/27 03:12:16;;;;;;;10.37;9.30;;;14.90;99.90;;;;;;5073505;28;20179;-80
2021/06/27 03:14:42;;;;;;;9.37;8.47;;;14.90;99.90;;;;;;5073211;28;20180;-80
2021/06/27 03:17:07;;;;;;;8.07;7.27;;;14.80;99.90;;;;;;5072835;28;20466;-80
2021/06/27 03:19:33;;;;;;;12.93;7.93;;;14.90;99.90;;;;;;5072831;28;20255;-80
2021/06/27 03:21:59;;;;;;;8.77;7.97;;;14.90;99.90;;;;;;5088518;28;20584;-80
2021/06/27 03:24:24;;;;;;;9.80;8.60;;;14.90;99.90;;;;;;5070818;28;20189;-80
2021/06/27 03:26:50;;;;;;;8.87;8.00;;;15.00;99.90;;;;;;5071875;28;20247;-80
2021/06/27 03:29:15;;;;;;;9.73;8.67;;;15.00;99.90;;;;;;5072690;28;20210;-80
2021/06/27 03:31:41;;;;;;;9.07;8.07;;;15.00;99.90;;;;;;5072208;28;20618;-80
2021/06/27 03:34:07;;;;;;;9.47;8.47;;;15.10;99.90;;;;;;5072015;28;20189;-80
2021/06/27 03:36:33;;;;;;;9.40;8.43;;;15.10;99.90;;;;;;5072241;28;20251;-80
2021/06/27 03:39:13;;;;;;;8.50;7.67;;;15.20;99.90;;;;;;5071380;28;20181;-80
2021/06/27 03:41:45;;;;;;;8.90;8.10;;;15.20;99.90;;;;;;5070889;28;20697;-80
2021/06/27 03:44:12;;;;;;;8.80;7.90;;;15.20;99.90;;;;;;5071776;28;20465;-80
2021/06/27 03:46:38;;;;;;;9.80;8.80;;;15.20;99.90;;;;;;5071766;28;21026;-80
2021/06/27 03:49:04;;;;;;;11.00;9.67;;;15.20;99.90;;;;;;5071988;28;20505;-80
2021/06/27 03:51:31;;;;;;;11.90;9.30;;;15.30;99.90;;;;;;5070862;28;20742;-80
2021/06/27 03:53:57;;;;;;;10.10;9.07;;;15.30;99.90;;;;;;5071793;28;20398;-80
2021/06/27 03:56:23;;;;;;;10.83;9.73;;;15.30;99.90;;;;;;5072182;28;20751;-80
2021/06/27 03:58:49;;;;;;;10.63;8.90;;;15.30;99.90;;;;;;5071387;28;20407;-80
2021/06/27 04:01:16;;;;;;;10.90;8.60;;;15.30;99.90;;;;;;5072225;28;20172;-80
2021/06/27 04:03:42;;;;;;;9.20;8.40;;;15.40;99.90;;;;;;5071735;28;20754;-79
2021/06/27 04:06:08;;;;;;;11.20;8.73;;;15.40;99.90;;;;;;5071854;28;20470;-80
2021/06/27 04:08:34;;;;;;;14.80;9.33;;;15.50;99.90;;;;;;5071440;28;20789;-80
2021/06/27 04:11:00;;;;;;;11.73;9.70;;;15.60;99.90;;;;;;5071927;28;20735;-80
2021/06/27 04:13:28;;;;;;;8.70;7.90;;;15.60;99.90;;;;;;5072066;28;20468;-80
2021/06/27 04:15:54;;;;;;;9.50;8.60;;;15.70;99.90;;;;;;5071630;28;20472;-80
2021/06/27 04:18:20;;;;;;;9.07;8.03;;;15.70;99.90;;;;;;5071807;28;20415;-80
2021/06/27 04:20:46;;;;;;;11.43;9.93;;;15.80;99.90;;;;;;5073177;28;20434;-80
2021/06/27 04:23:13;;;;;;;10.10;9.10;;;15.80;99.90;;;;;;5075463;28;20411;-80
2021/06/27 04:25:38;;;;;;;11.43;10.13;;;15.90;99.90;;;;;;5090664;28;20454;-80
2021/06/27 04:28:06;;;;;;;9.70;8.73;;;16.00;99.90;;;;;;5074190;28;20973;-80
2021/06/27 04:30:36;;;;;;;10.23;9.33;;;16.10;99.90;;;;;;5074826;28;20165;-80
2021/06/27 04:33:03;;;;;;;9.07;8.17;;;16.20;99.90;;;;;;5075021;28;20497;-80
2021/06/27 04:35:29;;;;;;;11.70;8.80;;;16.30;99.90;;;;;;5074047;28;20423;-80
2021/06/27 04:37:55;;;;;;;10.40;9.00;;;16.30;99.90;;;;;;5074786;28;20457;-80
2021/06/27 04:40:20;;;;;;;11.87;10.70;;;16.40;99.90;;;;;;5074433;28;20876;-80
2021/06/27 04:42:46;;;;;;;10.77;9.73;;;16.30;99.90;;;;;;5075229;28;20602;-80
2021/06/27 04:45:13;;;;;;;10.27;9.27;;;16.40;99.90;;;;;;5074742;28;20189;-80
2021/06/27 04:47:40;;;;;;;17.10;10.60;;;16.40;99.90;;;;;;5074344;28;20177;-80
2021/06/27 04:50:06;;;;;;;10.00;9.00;;;16.40;99.90;;;;;;5074676;28;20414;-80
2021/06/27 04:52:34;;;;;;;11.50;10.50;;;16.50;99.90;;;;;;5074556;28;20407;-80
2021/06/27 04:55:02;;;;;;;10.23;9.23;;;16.60;99.90;;;;;;5074889;28;20418;-80
2021/06/27 04:57:27;;;;;;;9.97;8.97;;;16.60;99.90;;;;;;5074541;28;20425;-80
2021/06/27 04:59:53;;;;;;;11.03;10.00;;;16.70;99.90;;;;;;5074646;28;20503;-80
2021/06/27 05:02:19;;;;;;;11.63;10.07;;;16.80;99.90;;;;;;5074617;28;20233;-79
2021/06/27 05:04:44;;;;;;;12.67;10.03;;;16.80;99.90;;;;;;5090198;28;20205;-80
2021/06/27 05:07:10;;;;;;;11.90;9.60;;;16.80;99.90;;;;;;5074884;28;20218;-80
2021/06/27 05:09:35;;;;;;;11.83;10.73;;;16.90;99.90;;;;;;5074440;28;20569;-80
2021/06/27 05:12:01;;;;;;;11.83;10.07;;;17.00;99.90;;;;;;5074262;28;20598;-80
2021/06/27 05:14:27;;;;;;;12.20;10.30;;;17.10;99.90;;;;;;5074245;28;20183;-80
2021/06/27 05:16:53;;;;;;;12.27;10.97;;;17.20;99.90;;;;;;5073725;28;20175;-80
2021/06/27 05:19:19;;;;;;;10.43;9.43;;;17.30;99.90;;;;;;5074136;28;20187;-80
2021/06/27 05:21:45;;;;;;;12.33;9.90;;;17.40;99.90;;;;;;5073973;28;20415;-80
2021/06/27 05:24:10;;;;;;;12.03;10.30;;;17.60;99.90;;;;;;5074167;28;20251;-80
2021/06/27 05:26:36;;;;;;;14.13;10.73;;;17.70;99.90;;;;;;5073960;28;20529;-80
2021/06/27 05:29:02;;;;;;;10.43;9.43;;;17.70;99.90;;;;;;5072932;28;20169;-80
2021/06/27 05:31:28;;;;;;;11.70;9.20;;;17.80;99.90;;;;;;5073513;28;20177;-80
2021/06/27 05:33:53;;;;;;;10.50;9.50;;;17.90;99.90;;;;;;5074183;28;20423;-80
2021/06/27 05:36:19;;;;;;;10.60;9.60;;;18.00;99.90;;;;;;5073935;28;20524;-80
2021/06/27 05:38:45;;;;;;;10.37;9.40;;;18.00;99.90;;;;;;5073908;28;20172;-80
2021/06/27 05:41:10;;;;;;;9.67;8.77;;;18.10;99.90;;;;;;5089659;28;20180;-80
2021/06/27 05:43:36;;;;;;;11.50;10.10;;;18.10;99.90;;;;;;5073813;28;20169;-80
2021/06/27 05:46:02;;;;;;;10.33;9.33;;;18.10;99.90;;;;;;5072971;28;20249;-80
2021/06/27 05:48:28;;;;;;;14.80;10.87;;;18.20;99.90;;;;;;5073526;28;20498;-80
2021/06/27 05:50:54;;;;;;;13.53;10.97;;;18.20;99.90;;;;;;5073591;28;20173;-80
2021/06/27 05:53:20;;;;;;;11.90;10.70;;;18.20;99.90;;;;;;5073475;28;20530;-80
2021/06/27 05:55:45;;;;;;;12.60;9.90;;;18.30;99.90;;;;;;5073464;28;20173;-80
2021/06/27 05:58:11;;;;;;;12.70;10.70;;;18.30;99.90;;;;;;5073470;28;20640;-80
2021/06/27 06:00:37;;;;;;;14.47;11.40;;;18.40;99.90;;;;;;5073199;28;20172;-80
2021/06/27 06:03:02;;;;;;;12.27;10.97;;;18.50;99.90;;;;;;5073254;28;20630;-80
2021/06/27 06:05:28;;;;;;;14.20;11.57;;;18.50;99.90;;;;;;5072654;28;20651;-80
2021/06/27 06:07:54;;;;;;;11.67;10.57;;;18.60;99.90;;;;;;5073232;28;20177;-80
2021/06/27 06:10:20;;;;;;;13.87;10.90;;;18.70;99.90;;;;;;5073179;28;20195;-80
2021/06/27 06:12:46;;;;;;;13.90;11.20;;;18.70;99.90;;;;;;5073505;28;20675;-80
2021/06/27 06:15:12;;;;;;;12.17;10.77;;;18.70;99.90;;;;;;5073093;28;20411;-80
2021/06/27 06:17:38;;;;;;;13.73;11.37;;;18.70;99.90;;;;;;5073482;28;20514;-80
2021/06/27 06:20:05;;;;;;;13.90;11.53;;;18.80;99.90;;;;;;5073036;28;20422;-80
2021/06/27 06:22:30;;;;;;;15.80;10.60;;;18.80;99.90;;;;;;5071965;28;20582;-80
2021/06/27 06:24:57;;;;;;;11.10;10.00;;;18.90;99.90;;;;;;5071500;28;20545;-80
2021/06/27 06:27:23;;;;;;;13.50;10.20;;;19.00;99.90;;;;;;5072529;28;20168;-80
2021/06/27 06:29:49;;;;;;;13.43;10.40;;;19.10;99.90;;;;;;5072553;28;20402;-80
2021/06/27 06:32:15;;;;;;;15.43;12.00;;;19.20;99.90;;;;;;5072781;28;20414;-80
2021/06/27 06:34:40;;;;;;;12.33;11.03;;;19.30;99.90;;;;;;5088690;28;20200;-80
2021/06/27 06:37:07;;;;;;;13.03;10.93;;;19.30;99.90;;;;;;5072602;28;20180;-80
2021/06/27 06:39:32;;;;;;;10.70;9.00;;;19.30;99.90;;;;;;5072721;28;20182;-80
2021/06/27 06:41:58;;;;;;;14.30;10.67;;;19.40;99.90;;;;;;5072743;28;20403;-80
2021/06/27 06:44:24;;;;;;;11.17;9.97;;;19.40;99.90;;;;;;5072006;28;20176;-80
2021/06/27 06:46:50;;;;;;;10.67;9.67;;;19.50;99.90;;;;;;5072338;28;20172;-80
2021/06/27 06:49:16;;;;;;;8.67;7.87;;;19.50;99.90;;;;;;5072633;28;20505;-80
2021/06/27 06:51:41;;;;;;;8.47;7.67;;;19.50;99.90;;;;;;5072768;28;20829;-80
2021/06/27 06:54:07;;;;;;;10.40;9.40;;;19.60;99.90;;;;;;5072645;28;20406;-80
2021/06/27 06:56:33;;;;;;;10.93;9.20;;;19.60;99.90;;;;;;5072383;28;20570;-80
2021/06/27 06:58:59;;;;;;;11.03;9.80;;;19.60;99.90;;;;;;5072442;28;20187;-80
2021/06/27 07:01:25;;;;;;;11.20;9.80;;;19.70;99.90;;;;;;5072425;28;20745;-80
2021/06/27 07:03:50;;;;;;;9.43;8.03;;;19.70;99.90;;;;;;5087908;28;20262;-80
2021/06/27 07:06:19;;;;;;;9.43;8.40;;;19.80;99.90;;;;;;5072350;28;20200;-80
2021/06/27 07:08:44;;;;;;;8.83;7.40;;;19.80;99.90;;;;;;5072306;28;20165;-80
2021/06/27 07:11:10;;;;;;;10.47;9.37;;;19.80;99.90;;;;;;5072347;28;20751;-80
2021/06/27 07:13:36;;;;;;;9.70;8.70;;;19.90;99.90;;;;;;5071856;28;20168;-80
2021/06/27 07:16:02;;;;;;;10.27;9.27;;;19.90;99.90;;;;;;5072293;28;20887;-80
2021/06/27 07:18:28;;;;;;;9.33;8.30;;;19.90;99.90;;;;;;5072027;28;20172;-80
2021/06/27 07:20:54;;;;;;;9.10;8.23;;;20.00;99.90;;;;;;5072231;28;20501;-80
2021/06/27 07:23:19;;;;;;;10.53;8.57;;;19.90;99.90;;;;;;5072345;28;20588;-80
2021/06/27 07:25:45;;;;;;;10.70;9.20;;;20.00;99.90;;;;;;5071250;28;20675;-80
2021/06/27 07:28:11;;;;;;;9.20;8.30;;;20.00;99.90;;;;;;5072274;28;20188;-80
2021/06/27 07:30:37;;;;;;;8.60;7.80;;;20.10;99.90;;;;;;5072120;28;20500;-80
2021/06/27 07:33:02;;;;;;;8.00;7.30;;;20.10;99.90;;;;;;5071998;28;20614;-80
2021/06/27 07:35:29;;;;;;;7.33;6.63;;;20.20;99.90;;;;;;5072062;28;20180;-80
2021/06/27 07:37:54;;;;;;;7.63;6.97;;;20.30;99.90;;;;;;5084662;28;20747;-80
2021/06/27 07:40:20;;;;;;;6.70;6.20;;;20.30;99.90;;;;;;5071807;28;20181;-80
2021/06/27 07:42:46;;;;;;;6.90;6.30;;;20.40;99.90;;;;;;5072307;28;20551;-80
2021/06/27 07:45:13;;;;;;;9.23;6.90;;;20.50;99.90;;;;;;5071765;28;20501;-80
2021/06/27 07:47:39;;;;;;;9.60;8.70;;;20.60;99.90;;;;;;5071929;28;20471;-80
2021/06/27 07:50:05;;;;;;;8.73;7.93;;;20.60;99.90;;;;;;5073115;28;20852;-80
2021/06/27 07:52:33;;;;;;;8.13;7.53;;;20.80;99.90;;;;;;5072566;28;20628;-80
2021/06/27 07:54:58;;;;;;;7.13;6.43;;;20.90;99.90;;;;;;5073722;28;20406;-80
2021/06/27 07:57:24;;;;;;;8.80;7.90;;;20.90;99.90;;;;;;5083304;28;20422;-80
2021/06/27 07:59:49;;;;;;;8.57;7.67;;;21.00;99.90;;;;;;5075782;28;20224;-80
2021/06/27 08:02:15;;;;;;;8.87;7.87;;;21.10;99.90;;;;;;5074548;28;20184;-80
2021/06/27 08:04:41;;;;;;;8.90;8.00;;;21.20;99.90;;;;;;5075559;28;20180;-80
2021/06/27 08:07:07;;;;;;;7.13;6.37;;;21.10;99.90;;;;;;5074624;28;20187;-80
2021/06/27 08:09:32;;;;;;;7.97;7.27;;;21.20;99.90;;;;;;5075549;28;20168;-80
2021/06/27 08:11:58;;;;;;;7.93;7.13;;;21.30;99.90;;;;;;5074516;28;20172;-80
2021/06/27 08:14:23;;;;;;;8.90;8.10;;;21.40;99.90;;;;;;5075568;28;20621;-80
2021/06/27 08:16:49;;;;;;;7.50;6.80;;;21.50;99.90;;;;;;5075599;28;20556;-80
2021/06/27 08:19:15;;;;;;;7.43;6.73;;;21.60;99.90;;;;;;5075300;28;20168;-80
2021/06/27 08:21:40;;;;;;;9.40;8.47;;;21.70;99.90;;;;;;5074092;28;20216;-80
2021/06/27 08:24:06;;;;;;;10.43;8.80;;;21.70;99.90;;;;;;5075351;28;20249;-80
2021/06/27 08:26:32;;;;;;;6.13;5.67;;;21.70;99.90;;;;;;5074633;28;20204;-80
2021/06/27 08:28:58;;;;;;;6.83;6.23;;;21.70;99.90;;;;;;5075194;28;20407;-80
2021/06/27 08:31:23;;;;;;;7.00;6.40;;;21.90;99.90;;;;;;5075434;28;20183;-80
2021/06/27 08:33:50;;;;;;;8.87;7.97;;;22.00;99.90;;;;;;5074044;28;20538;-80
2021/06/27 08:36:16;;;;;;;8.47;7.67;;;22.10;99.90;;;;;;5074989;28;20582;-80
2021/06/27 08:38:41;;;;;;;7.10;6.50;;;22.10;99.90;;;;;;5074953;28;20439;-80
2021/06/27 08:41:07;;;;;;;5.60;5.00;;;22.20;99.90;;;;;;5075036;28;20191;-80
2021/06/27 08:43:35;;;;;;;5.33;4.90;;;22.20;99.90;;;;;;5074606;28;20168;-80
2021/06/27 08:46:07;;;;;;;7.00;6.40;;;22.40;99.90;;;;;;5074730;28;20314;-80
2021/06/27 08:48:38;;;;;;;7.03;5.93;;;22.60;99.90;;;;;;5074728;28;20725;-80
2021/06/27 08:51:05;;;;;;;5.37;5.00;;;22.70;99.90;;;;;;5073985;28;20406;-81
2021/06/27 08:53:35;;;;;;;6.40;5.90;;;22.80;99.90;;;;;;5090522;28;21085;-81
2021/06/27 08:56:05;;;;;;;6.17;5.40;;;22.90;99.90;;;;;;5074388;28;20524;-81
2021/06/27 08:58:45;;;;;;;6.53;6.03;;;23.00;99.90;;;;;;5074687;28;20399;-81
2021/06/27 09:01:19;;;;;;;5.67;5.27;;;23.00;99.90;;;;;;5074298;28;20402;-81
2021/06/27 09:03:47;;;;;;;7.93;7.20;;;23.20;99.90;;;;;;5074627;28;20401;-81
2021/06/27 09:06:26;;;;;;;6.27;5.87;;;23.20;99.90;;;;;;5071121;28;20509;-81
2021/06/27 09:09:27;;;;;;;7.70;6.00;;;23.30;99.90;;;;;;5074933;28;20395;-81
2021/06/27 09:12:08;;;;;;;6.10;5.60;;;23.40;99.90;;;;;;5032582;28;20801;-81
2021/06/27 09:14:36;;;;;;;7.40;6.80;;;23.50;99.90;;;;;;5069892;28;20647;-81
2021/06/27 09:17:23;;;;;;;5.20;4.80;;;23.60;99.90;;;;;;5073880;28;20788;-81
2021/06/27 09:19:51;;;;;;;6.23;5.73;;;23.70;99.90;;;;;;5074366;28;20503;-81
2021/06/27 09:22:22;;;;;;;6.10;5.57;;;23.70;99.90;;;;;;5074336;28;20411;-81
2021/06/27 09:24:48;;;;;;;6.60;6.00;;;23.70;99.90;;;;;;5073411;28;20498;-81
2021/06/27 09:27:24;;;;;;;6.00;5.60;;;23.80;99.90;;;;;;5073535;28;20419;-81
2021/06/27 09:29:52;;;;;;;8.10;5.80;;;23.80;99.90;;;;;;5073925;28;20735;-81
2021/06/27 09:32:18;;;;;;;5.27;4.87;;;24.00;99.90;;;;;;5074337;28;20410;-81
2021/06/27 09:34:45;;;;;;;5.03;4.63;;;24.00;99.90;;;;;;5073853;28;20431;-81
2021/06/27 09:37:13;;;;;;;7.03;6.33;;;24.20;99.90;;;;;;5072910;28;20414;-81
2021/06/27 09:40:03;;;;;;;6.20;5.70;;;24.20;99.90;;;;;;5073257;28;20506;-81
2021/06/27 09:42:30;;;;;;;5.00;4.67;;;24.10;99.90;;;;;;5073499;28;20406;-81
2021/06/27 09:45:05;;;;;;;5.37;4.97;;;24.30;99.90;;;;;;5073489;28;20490;-81
2021/06/27 09:47:32;;;;;;;5.67;5.17;;;24.70;99.90;;;;;;5073651;28;20394;-81
2021/06/27 09:49:59;;;;;;;7.73;7.03;;;24.90;99.90;;;;;;5074105;28;20768;-81
2021/06/27 09:52:38;;;;;;;6.50;6.00;;;25.00;99.90;;;;;;5073701;28;20501;-81
2021/06/27 09:55:14;;;;;;;5.57;5.17;;;24.90;99.90;;;;;;5073322;28;20411;-81
2021/06/27 09:57:41;;;;;;;5.60;5.10;;;24.60;99.90;;;;;;5072497;28;20544;-81
2021/06/27 10:00:25;;;;;;;9.10;6.60;;;24.50;99.90;;;;;;5073757;28;20417;-81
2021/06/27 10:03:01;;;;;;;6.03;5.63;;;24.00;99.90;;;;;;5073705;28;20433;-81
2021/06/27 10:05:27;;;;;;;6.70;6.10;;;23.90;99.90;;;;;;5072965;28;20767;-81
2021/06/27 10:07:53;;;;;;;5.70;5.20;;;24.00;99.90;;;;;;5072761;28;20471;-81
2021/06/27 10:10:19;;;;;;;5.70;5.17;;;24.00;99.90;;;;;;5073266;28;20180;-81
2021/06/27 10:12:45;;;;;;;7.37;6.67;;;24.10;99.90;;;;;;5073351;28;20454;-81
2021/06/27 10:15:15;;;;;;;6.47;5.97;;;24.00;99.90;;;;;;5073056;28;20927;-81
2021/06/27 10:17:42;;;;;;;6.20;5.70;;;24.30;99.90;;;;;;5072543;28;20407;-81
2021/06/27 10:20:10;;;;;;;7.60;6.90;;;24.80;99.90;;;;;;5072571;28;20410;-81
2021/06/27 10:22:36;;;;;;;7.47;6.87;;;25.30;99.90;;;;;;5073265;28;20468;-80
2021/06/27 10:25:03;;;;;;;6.43;5.40;;;25.60;99.90;;;;;;5072393;28;20551;-81
2021/06/27 10:27:29;;;;;;;6.87;6.37;;;25.90;99.90;;;;;;5072851;28;20173;-81
2021/06/27 10:29:56;;;;;;;7.60;7.00;;;26.30;99.90;;;;;;5073047;28;20407;-81
2021/06/27 10:32:22;;;;;;;6.90;6.30;;;26.30;99.90;;;;;;5072866;28;20463;-80
2021/06/27 10:34:48;;;;;;;6.90;6.40;;;26.30;99.90;;;;;;5072838;28;20529;-80
2021/06/27 10:37:19;;;;;;;8.23;5.77;;;26.30;99.90;;;;;;5072501;28;20173;-80
2021/06/27 10:40:04;;;;;;;6.17;5.57;;;26.50;99.90;;;;;;5072779;28;20399;-81
2021/06/27 10:42:49;;;;;;;5.77;5.30;;;26.90;99.90;;;;;;5072529;28;20414;-81
2021/06/27 10:45:17;;;;;;;7.60;6.90;;;27.10;99.90;;;;;;5072598;28;20799;-81
2021/06/27 10:47:43;;;;;;;5.10;4.80;;;27.50;99.90;;;;;;5072365;28;20674;-81
2021/06/27 10:50:10;;;;;;;7.00;6.40;;;27.40;99.90;;;;;;5072720;28;20410;-81
2021/06/27 10:52:53;;;;;;;7.27;6.70;;;27.20;99.90;;;;;;5072437;28;20419;-81
2021/06/27 10:55:22;;;;;;;7.00;6.37;;;27.20;99.90;;;;;;5088399;28;20769;-81
2021/06/27 10:58:12;;;;;;;6.60;5.90;;;26.90;99.90;;;;;;5072818;28;20492;-80
2021/06/27 11:00:53;;;;;;;6.43;5.93;;;26.30;99.90;;;;;;5088356;28;20415;-81
2021/06/27 11:03:22;;;;;;;7.30;6.70;;;26.00;99.90;;;;;;5088268;28;20464;-80
2021/06/27 11:05:49;;;;;;;6.40;5.90;;;25.80;99.90;;;;;;5072459;28;20464;-81
2021/06/27 11:08:35;;;;;;;6.80;6.23;;;26.00;99.90;;;;;;5072144;28;20880;-81
2021/06/27 11:11:06;;;;;;;7.07;6.37;;;26.00;99.90;;;;;;5072653;28;20449;-81
2021/06/27 11:13:38;;;;;;;7.10;6.60;;;26.30;99.90;;;;;;5072844;28;20437;-80
2021/06/27 11:16:09;;;;;;;5.70;5.20;;;26.70;99.90;;;;;;5071976;28;20406;-81
2021/06/27 11:18:43;;;;;;;5.50;5.10;;;26.60;99.90;;;;;;5072363;28;20411;-81
2021/06/27 11:21:10;;;;;;;5.77;5.37;;;26.20;99.90;;;;;;5072342;28;20403;-81
2021/06/27 11:23:47;;;;;;;5.97;5.57;;;26.00;99.90;;;;;;5072161;28;20411;-81
2021/06/27 11:26:38;;;;;;;6.27;5.73;;;25.90;99.90;;;;;;5071782;28;20450;-81
2021/06/27 11:29:25;;;;;;;5.80;5.33;;;26.00;99.90;;;;;;5071955;28;20772;-81
2021/06/27 11:31:53;;;;;;;7.70;5.13;;;26.10;99.90;;;;;;5092033;28;20931;-81
2021/06/27 11:34:28;;;;;;;4.80;4.50;;;26.50;99.90;;;;;;5076101;28;20441;-81
2021/06/27 11:36:56;;;;;;;6.40;5.73;;;27.00;99.90;;;;;;5076382;28;20419;-81
2021/06/27 11:40:03;;;;;;;4.93;4.63;;;27.40;99.90;;;;;;5076276;28;20414;-81
2021/06/27 11:42:29;;;;;;;6.57;6.07;;;27.80;99.90;;;;;;5014220;28;20440;-81
2021/06/27 11:45:09;;;;;;;5.53;5.13;;;27.60;99.90;;;;;;5014405;28;20453;-81
2021/06/27 11:47:37;;;;;;;6.73;6.07;;;27.80;99.90;;;;;;5050662;28;20457;-81
2021/06/27 11:50:26;;;;;;;4.90;4.60;;;27.90;99.90;;;;;;5075947;28;20938;-81
2021/06/27 11:52:54;;;;;;;5.40;4.90;;;28.00;99.90;;;;;;5075667;28;20963;-81
2021/06/27 11:55:27;;;;;;;5.37;5.00;;;27.80;99.90;;;;;;5075689;28;20493;-80
2021/06/27 11:57:53;;;;;;;5.47;5.07;;;27.40;99.90;;;;;;5075725;28;20501;-81
2021/06/27 12:00:20;;;;;;;5.57;5.17;;;27.10;99.90;;;;;;5075652;28;20505;-81
2021/06/27 12:02:46;;;;;;;6.57;5.17;;;27.00;99.90;;;;;;5075322;28;20573;-81
2021/06/27 12:05:14;;;;;;;4.60;4.30;;;26.90;99.90;;;;;;5074813;28;20558;-81
2021/06/27 12:07:44;;;;;;;4.93;4.63;;;26.60;99.90;;;;;;5075433;28;20173;-81
2021/06/27 12:10:19;;;;;;;4.80;4.50;;;26.40;99.90;;;;;;5075719;28;20700;-81
2021/06/27 12:12:49;;;;;;;4.90;4.50;;;26.20;99.90;;;;;;5091461;28;20433;-80
2021/06/27 12:15:14;;;;;;;5.27;4.87;;;26.10;99.90;;;;;;5075556;28;20398;-81
2021/06/27 12:17:41;;;;;;;4.90;4.50;;;26.10;99.90;;;;;;5075200;28;20494;-80
2021/06/27 12:20:07;;;;;;;5.70;5.23;;;25.90;99.90;;;;;;5091191;28;20177;-81
2021/06/27 12:22:52;;;;;;;5.77;4.70;;;25.90;99.90;;;;;;5075225;28;20916;-81
2021/06/27 12:25:27;;;;;;;3.73;3.53;;;25.80;99.90;;;;;;5074226;28;20454;-81
2021/06/27 12:27:56;;;;;;;5.17;4.77;;;25.90;99.90;;;;;;5075221;28;20434;-81
2021/06/27 12:30:44;;;;;;;4.77;4.40;;;26.10;99.90;;;;;;5090929;28;20479;-81
2021/06/27 12:33:33;;;;;;;6.00;5.50;;;26.10;99.90;;;;;;5075068;28;20406;-81
2021/06/27 12:36:03;;;;;;;5.20;4.80;;;26.10;99.90;;;;;;5073647;28;20915;-81
2021/06/27 12:38:30;;;;;;;4.97;4.57;;;26.10;99.90;;;;;;5074941;28;20415;-80
2021/06/27 12:40:58;;;;;;;4.30;4.00;;;26.10;99.90;;;;;;5074089;28;20421;-81
2021/06/27 12:43:32;;;;;;;4.10;3.90;;;26.40;99.90;;;;;;5074622;28;20740;-80
2021/06/27 12:46:39;;;;;;;4.87;4.57;;;26.90;99.90;;;;;;5074597;28;20450;-81
2021/06/27 12:49:08;;;;;;;4.90;4.50;;;27.40;99.90;;;;;;5074741;28;20394;-81